• pl
  • eng

Awiacja
Click on the bold red name to decode a message. 08:31 22.08.2017

METAR EPBY 220630Z 27010KT 9999 FEW004 BKN005 OVC007 13/12 Q1016 =

METAR EPGD 220630Z 25006KT 9999 FEW003 SCT004 14/14 Q1015 =

METAR EPKK 220630Z 25009KT 220V280 9999 FEW014 SCT033 15/12 Q1020 =

METAR EPKT 220630Z 28009KT 9999 OVC006 12/11 Q1020 =

METAR EPLB 220630Z 30011KT 9999 FEW009 BKN013 BKN031 14/12 Q1017 =

METAR EPLL 220630Z 25013KT 9999 BKN009 13/12 Q1018 =

METAR EPMO 220630Z 27010KT 9999 FEW013 BKN017 15/13 Q1016 =

METAR EPPO 220630Z 29010KT 9999 SCT007 BKN043 13/11 Q1019 =

METAR EPRA 220630Z 29008KT 9999 SCT015 BKN028 15/12 Q1017=

METAR EPRZ 220630Z 27007KT 9999 FEW011 BKN022 13/11 Q1019 =

METAR EPSC 220630Z 25008KT 220V290 9999 BKN045 14/11 Q1018 =

METAR EPSY 220630Z 25007KT 9999 SCT010 BKN024 13/11 Q1015=

METAR EPWA 220630Z 28008KT 240V320 9999 BKN013 15/13 Q1016 BECMG
SCT013=

METAR EPWR 220630Z 29012KT 9999 SCT030 14/11 Q1021 =

METAR EPZG 220630Z 26009KT 9999 FEW008 BKN044 14/12 Q1020 =
Awiacja.imgw.pl jest pogodowym serwisem informacyjnym
Instytutu Meteorologii i Gospodarki Wodnej Państwowego Instytutu Badawczego.
Copyright IMGW PIB 2009-2011© Wszelkie prawa zastrzeżone.